Time;durP1;ratioP1;P1;durP2;ratioP2;P2;SDS_P1;SDS_P2;PMS_P1;PMS_P2;Temp;Humidity;BMP_temperature;BMP_pressure;BME280_temperature;BME280_humidity;BME280_pressure;Samples;Min_cycle;Max_cycle;Signal;HPM_P1;HPM_P2
2021/12/08 00:01:09;;;;;;;5.53;2.67;;;;;;;4.50;100.00;99156.41;5090206;28;20035;-82
2021/12/08 00:03:34;;;;;;;6.97;2.88;;;;;;;4.49;100.00;99153.91;5090546;28;20528;-89
2021/12/08 00:06:00;;;;;;;8.10;2.75;;;;;;;4.45;100.00;99127.28;5089640;28;20024;-89
2021/12/08 00:08:29;;;;;;;7.70;2.95;;;;;;;4.55;100.00;99132.59;5090473;28;20059;-88
2021/12/08 00:13:23;;;;;;;6.85;2.70;;;;;;;4.56;100.00;99124.66;5088812;28;20051;-89
2021/12/08 00:15:51;;;;;;;9.57;2.67;;;;;;;4.63;100.00;99119.81;5084334;28;20052;-88
2021/12/08 00:18:23;;;;;;;5.85;2.75;;;;;;;4.65;100.00;99123.13;5089619;28;20503;-88
2021/12/08 00:20:52;;;;;;;7.00;2.83;;;;;;;4.71;100.00;99112.22;5088837;28;20024;-88
2021/12/08 00:23:18;;;;;;;6.95;3.00;;;;;;;4.72;100.00;99124.31;5088919;28;20034;-88
2021/12/08 00:25:44;;;;;;;5.50;2.60;;;;;;;4.80;100.00;99142.78;5088168;28;20069;-87
2021/12/08 00:28:09;;;;;;;6.90;2.60;;;;;;;4.79;100.00;99141.13;5090631;28;20028;-88
2021/12/08 00:30:38;;;;;;;8.65;2.47;;;;;;;4.85;100.00;99155.47;5088885;28;20383;-88
2021/12/08 00:33:04;;;;;;;5.75;2.60;;;;;;;4.86;100.00;99150.13;5085396;28;20024;-88
2021/12/08 00:35:32;;;;;;;7.15;2.30;;;;;;;4.91;100.00;99142.78;5089992;28;20048;-88
2021/12/08 00:37:58;;;;;;;6.82;2.45;;;;;;;4.88;100.00;99114.38;5088694;28;20068;-88
2021/12/08 00:40:25;;;;;;;4.95;2.60;;;;;;;4.89;100.00;99126.44;5089111;28;20035;-88
2021/12/08 00:42:51;;;;;;;7.97;2.88;;;;;;;4.91;100.00;99127.16;5090189;28;20123;-88
2021/12/08 00:45:18;;;;;;;6.32;2.83;;;;;;;4.95;100.00;99133.78;5089979;28;20095;-81
2021/12/08 00:47:45;;;;;;;4.28;2.38;;;;;;;4.96;100.00;99139.81;5081587;28;20021;-88
2021/12/08 00:50:26;;;;;;;9.00;2.53;;;;;;;4.98;100.00;99135.31;5090124;28;20024;-88
2021/12/08 00:52:51;;;;;;;7.20;2.63;;;;;;;4.95;100.00;99125.97;5089456;28;20033;-88
2021/12/08 00:55:17;;;;;;;5.53;2.60;;;;;;;5.03;100.00;99141.81;5089569;28;20035;-88
2021/12/08 00:57:44;;;;;;;6.43;2.35;;;;;;;5.01;100.00;99128.09;5089722;28;20032;-88
2021/12/08 01:00:14;;;;;;;5.75;2.30;;;;;;;5.09;100.00;99157.94;5089671;28;20027;-80
2021/12/08 01:02:40;;;;;;;6.20;2.40;;;;;;;5.13;100.00;99169.75;5090165;28;20024;-88
2021/12/08 01:05:09;;;;;;;6.93;2.20;;;;;;;5.08;100.00;99151.88;5089268;28;20055;-87
2021/12/08 01:07:34;;;;;;;6.53;2.45;;;;;;;5.18;100.00;99178.88;5089509;28;20450;-88
2021/12/08 01:10:00;;;;;;;5.15;2.30;;;;;;;5.19;100.00;99164.06;5089409;28;20107;-88
2021/12/08 01:12:25;;;;;;;4.78;2.03;;;;;;;5.21;100.00;99168.25;5089845;28;20451;-88
2021/12/08 01:14:50;;;;;;;4.50;2.15;;;;;;;5.17;100.00;99165.97;5090893;28;20120;-88
2021/12/08 01:17:16;;;;;;;4.97;2.15;;;;;;;5.22;100.00;99169.91;5089461;28;20357;-88
2021/12/08 01:19:45;;;;;;;4.50;2.30;;;;;;;5.28;100.00;99182.44;5087535;28;20016;-86
2021/12/08 01:22:10;;;;;;;5.90;2.40;;;;;;;5.29;100.00;99176.28;5087905;28;20024;-88
2021/12/08 01:24:36;;;;;;;6.82;2.60;;;;;;;5.33;100.00;99182.06;5088079;28;20023;-88
2021/12/08 01:27:01;;;;;;;5.07;2.15;;;;;;;5.30;100.00;99177.09;5088675;28;20110;-88
2021/12/08 01:29:27;;;;;;;5.35;2.28;;;;;;;5.38;100.00;99195.59;5087605;28;20023;-88
2021/12/08 01:31:52;;;;;;;5.47;2.47;;;;;;;5.32;100.00;99170.00;5088720;28;20499;-88
2021/12/08 01:34:17;;;;;;;5.38;2.70;;;;;;;5.35;100.00;99180.19;5088389;28;20044;-88
2021/12/08 01:36:43;;;;;;;5.85;2.58;;;;;;;5.35;100.00;99180.19;5084592;28;20028;-87
2021/12/08 01:39:10;;;;;;;5.60;2.40;;;;;;;5.40;100.00;99193.69;5089105;28;20023;-88
2021/12/08 01:41:36;;;;;;;7.43;2.70;;;;;;;5.36;100.00;99181.84;5089375;28;20032;-88
2021/12/08 01:46:52;;;;;;;10.23;2.88;;;;;;;5.43;100.00;99201.25;5089396;28;20036;-87
2021/12/08 01:49:17;;;;;;;7.57;2.65;;;;;;;5.39;100.00;99189.41;5087873;28;20097;-81
2021/12/08 01:51:43;;;;;;;6.82;2.50;;;;;;;5.43;100.00;99197.81;5089118;28;20051;-87
2021/12/08 01:54:08;;;;;;;6.95;2.80;;;;;;;5.47;100.00;99205.28;5084441;28;20028;-88
2021/12/08 01:56:34;;;;;;;9.52;2.88;;;;;;;5.44;100.00;99200.31;5088639;28;20071;-87
2021/12/08 01:59:04;;;;;;;9.80;2.80;;;;;;;5.44;100.00;99195.09;5087570;28;20529;-87
2021/12/08 02:01:31;;;;;;;10.00;2.67;;;;;;;5.46;100.00;99203.63;5081615;28;20026;-88
2021/12/08 02:04:03;;;;;;;6.47;2.40;;;;;;;5.46;100.00;99211.44;5087730;28;20154;-87
2021/12/08 02:06:29;;;;;;;8.43;2.63;;;;;;;5.54;100.00;99221.25;5081664;28;20099;-87
2021/12/08 02:08:55;;;;;;;11.55;2.38;;;;;;;5.51;100.00;99206.69;5088786;28;20492;-87
2021/12/08 02:11:21;;;;;;;8.57;2.80;;;;;;;5.55;99.88;99223.75;5087232;28;20024;-87
2021/12/08 02:13:50;;;;;;;7.80;2.75;;;;;;;5.55;99.67;99228.97;5092852;28;20028;-81
2021/12/08 02:16:16;;;;;;;9.38;2.35;;;;;;;5.57;99.49;99227.06;5088755;28;20024;-88
2021/12/08 02:18:48;;;;;;;8.00;2.30;;;;;;;5.57;99.15;99229.69;5088895;28;20027;-88
2021/12/08 02:21:34;;;;;;;7.67;2.13;;;;;;;5.62;99.12;99240.59;5096544;28;20450;-88
2021/12/08 02:24:03;;;;;;;11.82;2.60;;;;;;;5.62;98.53;99251.03;5078535;28;20027;-87
2021/12/08 02:26:30;;;;;;;8.98;2.42;;;;;;;5.53;98.59;99241.31;5087592;28;20115;-87
2021/12/08 02:28:56;;;;;;;8.32;2.20;;;;;;;5.59;97.89;99246.03;5090259;28;20024;-87
2021/12/08 02:31:36;;;;;;;5.25;2.45;;;;;;;5.56;97.89;99246.28;5092377;28;20160;-80
2021/12/08 02:47:53;;;;;;;8.25;2.20;;;;;;;5.51;96.07;99242.38;5091886;28;20054;-89
2021/12/08 02:50:24;;;;;;;6.63;1.90;;;;;;;5.52;96.58;99254.47;5092117;28;20024;-83
2021/12/08 02:52:50;;;;;;;5.97;1.85;;;;;;;5.53;96.22;99263.97;5089125;28;20365;-80
2021/12/08 02:55:15;;;;;;;8.25;2.17;;;;;;;5.54;96.12;99266.44;5091927;28;20074;-87
2021/12/08 02:57:44;;;;;;;5.57;2.30;;;;;;;5.51;96.27;99261.47;5091220;28;20103;-87
2021/12/08 03:00:15;;;;;;;7.68;2.30;;;;;;;5.52;96.27;99263.13;5089819;28;20035;-87
2021/12/08 03:02:40;;;;;;;9.23;2.30;;;;;;;5.50;96.39;99266.81;5090759;28;20403;-80
2021/12/08 03:05:06;;;;;;;9.20;2.55;;;;;;;5.45;96.72;99254.13;5087113;28;20024;-88
2021/12/08 03:07:32;;;;;;;9.63;2.20;;;;;;;5.49;96.82;99265.97;5091325;28;20082;-88
2021/12/08 03:10:09;;;;;;;17.00;2.45;;;;;;;5.51;96.97;99264.06;5071808;28;20024;-88
2021/12/08 03:12:35;;;;;;;7.90;2.10;;;;;;;5.43;96.90;99255.19;5093294;28;20038;-87
2021/12/08 03:15:00;;;;;;;10.82;2.53;;;;;;;5.47;97.01;99257.44;5094892;28;20028;-87
2021/12/08 03:17:26;;;;;;;9.63;2.15;;;;;;;5.46;97.14;99271.44;5092490;28;20025;-87
2021/12/08 03:19:51;;;;;;;8.63;2.33;;;;;;;5.50;96.42;99272.03;5090138;28;20024;-82
2021/12/08 03:22:17;;;;;;;7.80;2.25;;;;;;;5.49;95.82;99265.97;5090820;28;20088;-81
2021/12/08 03:24:47;;;;;;;10.30;2.47;;;;;;;5.50;95.01;99283.28;5090987;28;20032;-87
2021/12/08 03:27:19;;;;;;;7.43;1.80;;;;;;;5.49;94.85;99286.84;5090152;28;20031;-87
2021/12/08 03:29:54;;;;;;;9.02;2.10;;;;;;;5.51;94.30;99290.16;5091296;28;20146;-88
2021/12/08 03:32:36;;;;;;;10.38;2.22;;;;;;;5.50;94.10;99293.72;5083729;28;20077;-87
2021/12/08 03:35:03;;;;;;;8.98;2.00;;;;;;;5.50;93.59;99301.53;5090521;28;20052;-88
2021/12/08 03:37:38;;;;;;;8.60;2.00;;;;;;;5.49;92.94;99289.44;5089560;28;20024;-80
2021/12/08 03:40:12;;;;;;;11.18;2.30;;;;;;;5.43;92.58;99292.53;5089876;28;20032;-88
2021/12/08 03:42:38;;;;;;;7.70;1.90;;;;;;;5.47;92.34;99288.75;5090471;28;20032;-88
2021/12/08 03:45:09;;;;;;;10.77;2.17;;;;;;;5.41;92.42;99284.00;5090729;28;20032;-80
2021/12/08 03:47:39;;;;;;;10.45;2.17;;;;;;;5.42;91.63;99285.66;5096932;28;20493;-88
2021/12/08 03:50:07;;;;;;;6.75;1.80;;;;;;;5.39;91.82;99285.06;5086502;28;20035;-88
2021/12/08 03:52:33;;;;;;;9.40;1.95;;;;;;;5.33;91.44;99286.38;5088880;28;20527;-88
2021/12/08 03:54:58;;;;;;;7.88;1.98;;;;;;;5.30;91.19;99287.47;5090481;28;20158;-88
2021/12/08 03:57:24;;;;;;;9.18;1.98;;;;;;;5.31;91.12;99298.72;5090418;28;20110;-88
2021/12/08 03:59:49;;;;;;;12.13;2.13;;;;;;;5.27;90.40;99298.13;5090800;28;20154;-89
2021/12/08 04:02:15;;;;;;;7.10;1.80;;;;;;;5.27;90.78;99308.56;5091030;28;20100;-88
2021/12/08 04:04:43;;;;;;;6.20;1.73;;;;;;;5.21;90.75;99297.78;5089026;28;20318;-89
2021/12/08 04:07:11;;;;;;;9.50;1.80;;;;;;;5.13;90.47;99306.16;5090954;28;20024;-89
2021/12/08 04:09:40;;;;;;;5.35;1.83;;;;;;;5.14;90.93;99312.19;5089651;28;20047;-88
2021/12/08 04:12:08;;;;;;;15.82;2.20;;;;;;;5.14;90.77;99312.19;5090500;28;20107;-88
2021/12/08 04:14:48;;;;;;;8.07;1.80;;;;;;;5.07;91.45;99292.75;5094013;28;20082;-88
2021/12/08 04:17:24;;;;;;;8.55;1.83;;;;;;;5.08;90.84;99315.28;5088665;28;20112;-88
2021/12/08 04:19:52;;;;;;;11.23;2.05;;;;;;;5.06;90.92;99311.94;5088201;28;20035;-88
2021/12/08 04:22:33;;;;;;;7.13;1.60;;;;;;;4.96;90.68;99304.84;5089268;28;20023;-88
2021/12/08 04:25:02;;;;;;;10.57;2.22;;;;;;;5.00;91.01;99316.69;5090354;28;20031;-88
2021/12/08 04:27:32;;;;;;;9.38;2.03;;;;;;;4.93;90.55;99319.88;5090293;28;20035;-88
2021/12/08 04:29:57;;;;;;;9.27;2.08;;;;;;;4.87;91.20;99307.31;5090721;28;20395;-88
2021/12/08 04:32:28;;;;;;;11.88;2.05;;;;;;;4.88;91.30;99328.03;5090056;28;20119;-88
2021/12/08 04:34:59;;;;;;;11.32;1.98;;;;;;;4.84;91.18;99326.63;5088950;28;20085;-88
2021/12/08 04:37:31;;;;;;;7.05;1.90;;;;;;;4.84;90.79;99326.63;5086527;28;20059;-88
2021/12/08 04:45:37;;;;;;;11.57;1.95;;;;;;;4.75;90.14;99305.59;5089712;28;20032;-80
2021/12/08 04:51:19;;;;;;;7.85;1.92;;;;;;;4.71;90.06;99315.41;5089282;28;20806;-88
2021/12/08 05:00:12;;;;;;;8.23;2.28;;;;;;;4.67;89.28;99316.59;5087355;28;20023;-88
2021/12/08 05:02:31;;;;;;;7.05;1.63;;;;;;;4.61;89.46;99332.69;5080044;28;20078;-80
2021/12/08 05:09:57;;;;;;;7.82;1.85;;;;;;;4.52;89.64;99336.81;5089138;28;20051;-88
2021/12/08 05:12:27;;;;;;;9.35;1.77;;;;;;;4.52;89.63;99325.56;5089229;28;20115;-80
2021/12/08 05:15:21;;;;;;;8.52;1.90;;;;;;;4.61;89.97;99354.34;5085888;28;20055;-89
2021/12/08 05:17:59;;;;;;;9.68;1.60;;;;;;;4.60;89.25;99341.44;5084953;28;20075;-88
2021/12/08 05:20:45;;;;;;;7.45;1.70;;;;;;;4.56;89.26;99335.63;5088881;28;20049;-88
2021/12/08 05:23:18;;;;;;;11.05;2.50;;;;;;;4.60;89.89;99344.03;5088210;28;20487;-88
2021/12/08 05:25:45;;;;;;;12.05;2.17;;;;;;;4.61;89.36;99350.91;5089546;28;20012;-88
2021/12/08 05:28:14;;;;;;;5.85;1.80;;;;;;;4.54;89.34;99334.91;5081630;28;20055;-88
2021/12/08 05:30:47;;;;;;;11.63;1.83;;;;;;;4.56;89.46;99343.44;5090615;28;20011;-88
2021/12/08 05:33:13;;;;;;;11.77;2.20;;;;;;;4.59;89.28;99350.19;5096921;28;20016;-79
2021/12/08 05:35:41;;;;;;;5.32;1.50;;;;;;;4.52;89.15;99347.22;5089134;28;20036;-88
2021/12/08 05:38:10;;;;;;;7.35;1.80;;;;;;;4.51;88.95;99349.94;5089487;28;20044;-88
2021/12/08 05:40:41;;;;;;;9.77;1.80;;;;;;;4.52;88.90;99359.41;5083765;28;20024;-88
2021/12/08 05:43:07;;;;;;;9.52;2.00;;;;;;;4.53;88.73;99376.69;5089038;28;20429;-88
2021/12/08 05:45:34;;;;;;;9.35;2.08;;;;;;;4.58;89.39;99378.03;5089115;28;20013;-87
2021/12/08 05:48:00;;;;;;;11.18;2.33;;;;;;;4.56;89.15;99379.06;5089388;28;20039;-87
2021/12/08 05:50:40;;;;;;;14.05;2.47;;;;;;;4.58;88.98;99383.22;5089142;28;20024;-88
2021/12/08 05:53:06;;;;;;;11.32;1.80;;;;;;;4.56;89.23;99376.47;5089403;28;20036;-88
2021/12/08 05:55:33;;;;;;;12.00;2.38;;;;;;;4.51;89.49;99376.81;5086768;28;20027;-90
2021/12/08 05:57:58;;;;;;;9.20;2.10;;;;;;;4.49;89.57;99370.06;5089232;28;20026;-87
2021/12/08 06:00:29;;;;;;;8.60;1.80;;;;;;;4.56;89.14;99376.47;5088494;28;20119;-88
2021/12/08 06:02:55;;;;;;;9.75;2.05;;;;;;;4.54;89.34;99386.16;5088030;28;20066;-89
2021/12/08 06:05:22;;;;;;;11.88;2.22;;;;;;;4.50;88.99;99389.94;5092689;28;20031;-89
2021/12/08 06:07:48;;;;;;;16.33;2.55;;;;;;;4.48;88.82;99392.66;5093261;28;20081;-89
2021/12/08 06:10:21;;;;;;;9.38;2.42;;;;;;;4.52;89.20;99393.25;5092359;28;20036;-88
2021/12/08 06:12:49;;;;;;;11.18;2.28;;;;;;;4.47;88.93;99390.16;5095574;28;20027;-88
2021/12/08 06:15:16;;;;;;;17.38;2.38;;;;;;;4.43;88.52;99393.94;5093767;28;20105;-89
2021/12/08 06:17:45;;;;;;;12.10;2.10;;;;;;;4.47;88.28;99401.41;5092918;28;20112;-88
2021/12/08 06:20:14;;;;;;;8.68;1.90;;;;;;;4.39;88.75;99393.28;5091832;28;20039;-89
2021/12/08 06:22:41;;;;;;;11.75;2.33;;;;;;;4.44;88.61;99406.00;5086148;28;20023;-88
2021/12/08 06:25:09;;;;;;;13.00;2.00;;;;;;;4.39;88.91;99409.75;5092427;28;20028;-81
2021/12/08 06:27:35;;;;;;;11.48;2.45;;;;;;;4.40;89.37;99415.78;5089427;28;20028;-80
2021/12/08 06:30:04;;;;;;;11.68;2.30;;;;;;;4.35;88.09;99418.72;5087176;28;20379;-80
2021/12/08 06:32:29;;;;;;;11.10;2.35;;;;;;;4.33;88.26;99418.00;5090256;28;20506;-89
2021/12/08 06:34:57;;;;;;;11.98;2.28;;;;;;;4.38;88.21;99417.66;5092014;28;20044;-89
2021/12/08 06:37:27;;;;;;;13.25;2.53;;;;;;;4.32;88.29;99405.94;5092590;28;20461;-88
2021/12/08 06:40:00;;;;;;;12.07;2.53;;;;;;;4.27;88.21;99405.44;5092137;28;20028;-89
2021/12/08 06:42:30;;;;;;;13.00;2.22;;;;;;;4.26;87.94;99408.97;5091758;28;20044;-89
2021/12/08 06:44:56;;;;;;;10.93;2.10;;;;;;;4.26;87.87;99408.97;5088395;28;20044;-89
2021/12/08 06:47:29;;;;;;;12.25;2.33;;;;;;;4.25;88.16;99393.47;5090870;28;20032;-89
2021/12/08 06:49:57;;;;;;;12.02;2.22;;;;;;;4.26;86.92;99411.56;5092349;28;20028;-88
2021/12/08 06:52:30;;;;;;;10.43;2.10;;;;;;;4.18;87.45;99419.09;5091055;28;20032;-89
2021/12/08 06:54:59;;;;;;;;;;;;;;;4.30;87.37;99431.25;5091558;28;20028;-89
2021/12/08 06:57:40;;;;;;;13.02;2.00;;;;;;;4.20;87.70;99422.44;5092505;28;19916;-89
2021/12/08 07:00:21;;;;;;;9.93;2.20;;;;;;;4.19;87.66;99423.38;5092159;28;20024;-89
2021/12/08 07:02:54;;;;;;;12.50;2.30;;;;;;;4.13;88.10;99421.19;5092609;28;20119;-89
2021/12/08 07:05:31;;;;;;;10.13;2.20;;;;;;;4.15;87.71;99434.94;5092432;28;20031;-90
2021/12/08 07:08:03;;;;;;;12.80;2.40;;;;;;;4.12;87.64;99437.75;5084996;28;20063;-90
2021/12/08 07:10:35;;;;;;;12.82;2.63;;;;;;;4.04;87.80;99440.06;5092394;28;20438;-89
2021/12/08 07:13:06;;;;;;;12.30;2.10;;;;;;;4.07;87.70;99455.47;5091416;28;20483;-89
2021/12/08 07:15:41;;;;;;;15.40;2.70;;;;;;;3.99;87.99;99452.53;5087026;28;20025;-89
2021/12/08 07:18:17;;;;;;;13.77;2.47;;;;;;;4.00;87.94;99459.41;5092968;28;20043;-89
2021/12/08 07:20:54;;;;;;;12.57;2.63;;;;;;;3.95;88.20;99459.72;5092467;28;20028;-89
2021/12/08 07:23:26;;;;;;;12.10;2.08;;;;;;;3.90;87.96;99468.78;5090840;28;20028;-81
2021/12/08 07:25:55;;;;;;;11.23;2.50;;;;;;;3.91;88.05;99476.50;5084860;28;20035;-89
2021/12/08 07:28:24;;;;;;;14.88;2.30;;;;;;;3.87;88.43;99475.03;5091157;28;20426;-88
2021/12/08 07:30:55;;;;;;;15.35;2.10;;;;;;;3.81;88.15;99480.66;5082515;28;20211;-80
2021/12/08 07:33:22;;;;;;;9.57;2.22;;;;;;;3.84;88.48;99490.84;5093469;28;20055;-80
2021/12/08 07:35:52;;;;;;;10.88;2.35;;;;;;;3.86;88.04;99493.34;5089476;28;20052;-88
2021/12/08 07:38:21;;;;;;;12.52;2.40;;;;;;;3.86;88.22;99503.75;5090335;28;20028;-80
2021/12/08 07:41:05;;;;;;;12.93;2.40;;;;;;;3.86;88.00;99514.16;5091881;28;20540;-88
2021/12/08 07:43:33;;;;;;;10.20;2.22;;;;;;;3.74;87.88;99490.66;5091884;28;20784;-88
2021/12/08 07:46:10;;;;;;;15.50;2.22;;;;;;;3.78;87.93;99506.88;5091569;28;20031;-89
2021/12/08 07:48:57;;;;;;;14.25;2.33;;;;;;;3.83;88.25;99514.38;5090243;28;20120;-89
2021/12/08 07:51:24;;;;;;;10.70;1.70;;;;;;;3.86;88.66;99524.56;5088829;28;20140;-89
2021/12/08 07:53:51;;;;;;;9.07;1.80;;;;;;;3.84;88.38;99516.88;5091069;28;20051;-89
2021/12/08 07:56:19;;;;;;;13.02;2.50;;;;;;;3.85;88.56;99522.91;5090680;28;20073;-89
2021/12/08 07:59:00;;;;;;;11.63;2.10;;;;;;;3.85;88.61;99525.50;5091339;28;20043;-88
2021/12/08 08:01:34;;;;;;;8.65;1.73;;;;;;;3.89;88.16;99526.97;5097345;28;20040;-89
2021/12/08 08:04:03;;;;;;;12.65;2.28;;;;;;;3.82;87.91;99510.94;5088576;28;20062;-88
2021/12/08 08:06:33;;;;;;;11.15;2.30;;;;;;;3.86;88.19;99507.19;5091083;28;20130;-89
2021/12/08 08:08:59;;;;;;;10.77;2.45;;;;;;;3.91;87.30;99530.28;5090575;28;20027;-89
2021/12/08 08:11:41;;;;;;;7.60;2.13;;;;;;;3.85;87.52;99508.13;5089844;28;20383;-88
2021/12/08 08:14:10;;;;;;;8.90;2.42;;;;;;;3.93;86.91;99518.00;5091918;28;20131;-88
2021/12/08 08:16:37;;;;;;;7.90;2.05;;;;;;;3.96;86.98;99525.59;5089518;28;20035;-89
2021/12/08 08:19:10;;;;;;;9.63;2.22;;;;;;;4.01;87.02;99539.16;5088302;28;20553;-88
2021/12/08 08:21:40;;;;;;;13.77;2.70;;;;;;;4.00;86.50;99527.94;5089454;28;20038;-89
2021/12/08 08:24:08;;;;;;;9.77;2.30;;;;;;;4.03;86.05;99526.88;5090891;28;20027;-88
2021/12/08 08:26:36;;;;;;;14.77;2.40;;;;;;;4.03;85.86;99532.91;5100167;28;20065;-88
2021/12/08 08:29:03;;;;;;;8.10;1.80;;;;;;;4.04;86.09;99523.34;5091014;28;20242;-89
2021/12/08 08:31:33;;;;;;;12.25;2.30;;;;;;;4.10;85.23;99522.91;5091214;28;20028;-88
2021/12/08 08:34:00;;;;;;;9.88;1.95;;;;;;;4.12;85.91;99526.25;5090384;28;20028;-88
2021/12/08 08:36:31;;;;;;;9.18;1.70;;;;;;;4.08;86.14;99509.19;5083000;28;20032;-89
2021/12/08 08:39:01;;;;;;;10.35;2.03;;;;;;;4.13;85.23;99501.88;5089360;28;20020;-80
2021/12/08 08:41:32;;;;;;;10.80;2.20;;;;;;;4.08;85.73;99490.97;5081344;28;20027;-79
2021/12/08 08:44:01;;;;;;;7.10;1.98;;;;;;;4.18;86.23;99499.78;5091222;28;20020;-89
2021/12/08 08:46:33;;;;;;;8.20;2.10;;;;;;;4.18;85.81;99499.78;5090843;28;20383;-88
2021/12/08 08:49:03;;;;;;;11.68;2.08;;;;;;;4.14;85.76;99487.94;5090614;28;20028;-88
2021/12/08 08:51:48;;;;;;;10.02;2.30;;;;;;;4.15;85.52;99494.81;5075507;28;20004;-78
2021/12/08 08:54:21;;;;;;;8.45;2.30;;;;;;;4.18;84.86;99494.59;5087856;28;20032;-88
2021/12/08 08:56:55;;;;;;;9.55;2.20;;;;;;;4.19;85.36;99490.22;5089171;28;20127;-88
2021/12/08 08:59:25;;;;;;;6.82;2.03;;;;;;;4.10;84.23;99489.09;5089547;28;20060;-87
2021/12/08 09:01:53;;;;;;;9.85;2.33;;;;;;;4.17;84.74;99512.91;5089642;28;20046;-87
2021/12/08 09:04:32;;;;;;;8.73;2.38;;;;;;;4.13;85.45;99504.47;5089634;28;20028;-90
2021/12/08 09:07:02;;;;;;;11.15;2.33;;;;;;;4.14;84.90;99502.72;5089490;28;20023;-89
2021/12/08 09:09:33;;;;;;;12.65;2.05;;;;;;;4.17;84.67;99524.16;5089457;28;20032;-88
2021/12/08 09:12:14;;;;;;;9.48;2.40;;;;;;;4.16;84.75;99512.06;5090225;28;20024;-89
2021/12/08 09:15:00;;;;;;;8.07;2.42;;;;;;;4.22;84.20;99516.84;5096249;28;20020;-87
2021/12/08 09:17:38;;;;;;;12.77;2.15;;;;;;;4.16;84.48;99511.25;5089546;28;20447;-80
2021/12/08 09:20:12;;;;;;;8.90;2.28;;;;;;;4.24;84.41;99519.34;5088812;28;20038;-88
2021/12/08 09:22:56;;;;;;;8.93;2.05;;;;;;;4.20;84.55;99523.94;5089459;28;20028;-89
2021/12/08 09:25:35;;;;;;;9.13;2.05;;;;;;;4.28;84.52;99526.00;5089289;28;20645;-89
2021/12/08 09:28:09;;;;;;;9.23;2.17;;;;;;;4.21;84.30;99524.78;5087530;28;20483;-89
2021/12/08 09:30:47;;;;;;;9.60;2.13;;;;;;;4.30;84.72;99540.59;5088464;28;20028;-79
2021/12/08 09:33:17;;;;;;;8.07;2.03;;;;;;;4.25;84.11;99536.63;5090083;28;20424;-89
2021/12/08 09:35:58;;;;;;;13.18;3.25;;;;;;;4.31;84.66;99555.28;5088878;28;20040;-89
2021/12/08 09:38:29;;;;;;;12.18;2.42;;;;;;;4.38;84.40;99560.88;5094409;28;20391;-88
2021/12/08 09:41:00;;;;;;;7.35;2.22;;;;;;;4.37;84.32;99549.63;5096285;28;20038;-89
2021/12/08 09:43:34;;;;;;;9.60;2.40;;;;;;;4.42;83.67;99540.69;5096683;28;20028;-89
2021/12/08 09:46:06;;;;;;;8.38;2.20;;;;;;;4.52;83.67;99549.53;5096312;28;20041;-89
2021/12/08 09:48:32;;;;;;;10.32;1.90;;;;;;;4.52;84.10;99544.31;5097069;28;20054;-89
2021/12/08 09:50:58;;;;;;;8.65;2.13;;;;;;;4.54;83.86;99540.66;5097026;28;20473;-79
2021/12/08 09:53:26;;;;;;;14.93;2.72;;;;;;;4.56;83.52;99530.13;5096966;28;20102;-88
2021/12/08 09:55:53;;;;;;;9.05;1.70;;;;;;;4.63;83.16;99545.22;5096373;28;20031;-89
2021/12/08 09:58:18;;;;;;;10.43;2.03;;;;;;;4.65;83.12;99530.31;5095398;28;20020;-89
2021/12/08 10:00:46;;;;;;;7.45;2.03;;;;;;;4.67;82.89;99538.03;5096549;28;20063;-88
2021/12/08 10:03:16;;;;;;;9.95;1.95;;;;;;;4.65;82.14;99522.50;5097120;28;20027;-88
2021/12/08 10:05:41;;;;;;;7.63;1.77;;;;;;;4.73;82.99;99516.75;5096894;28;20081;-85
2021/12/08 10:08:09;;;;;;;6.32;1.80;;;;;;;4.80;82.68;99530.16;5096916;28;20055;-88
2021/12/08 10:10:35;;;;;;;8.18;1.70;;;;;;;4.84;81.95;99529.88;5096551;28;20127;-89
2021/12/08 10:13:01;;;;;;;7.63;1.60;;;;;;;4.81;81.43;99518.81;5097006;28;20024;-88
2021/12/08 10:15:27;;;;;;;9.77;2.00;;;;;;;4.90;81.80;99528.59;5089339;28;20044;-88
2021/12/08 10:17:57;;;;;;;10.57;1.88;;;;;;;4.88;81.63;99505.25;5086172;28;20498;-88
2021/12/08 10:20:25;;;;;;;7.55;1.70;;;;;;;4.94;81.78;99517.00;5095476;28;20032;-88
2021/12/08 10:23:18;;;;;;;8.50;1.80;;;;;;;4.99;82.38;99513.13;5095474;28;20043;-88
2021/12/08 10:25:48;;;;;;;8.27;2.10;;;;;;;4.93;81.74;99503.13;5096953;28;20028;-89
2021/12/08 10:28:19;;;;;;;6.18;1.65;;;;;;;5.03;82.35;99509.34;5096473;28;20028;-88
2021/12/08 10:30:51;;;;;;;8.02;1.83;;;;;;;5.04;82.02;99497.97;5094656;28;20399;-89
2021/12/08 10:33:37;;;;;;;7.75;1.50;;;;;;;5.08;81.68;99495.97;5094928;28;20400;-79
2021/12/08 10:36:17;;;;;;;6.20;1.60;;;;;;;5.12;81.65;99486.16;5089430;28;20036;-89
2021/12/08 10:38:42;;;;;;;6.85;1.70;;;;;;;5.15;81.92;99497.19;5094689;28;20028;-89
2021/12/08 10:41:08;;;;;;;10.10;2.05;;;;;;;5.13;80.59;99477.38;5097456;28;20581;-89
2021/12/08 10:43:34;;;;;;;6.25;2.03;;;;;;;5.19;81.12;99477.75;5097086;28;20032;-88
2021/12/08 10:46:07;;;;;;;7.55;1.98;;;;;;;5.23;81.92;99488.81;5098599;28;20019;-89
2021/12/08 10:48:40;;;;;;;7.88;1.70;;;;;;;5.24;80.88;99473.06;5097211;28;20404;-89
2021/12/08 10:56:44;;;;;;;9.27;2.05;;;;;;;5.25;80.88;99466.06;5093584;28;20388;-89
2021/12/08 10:59:09;;;;;;;12.50;1.92;;;;;;;5.27;80.36;99470.22;5092422;28;20020;-89
2021/12/08 11:01:35;;;;;;;6.53;1.52;;;;;;;5.36;80.81;99497.38;5091189;28;20059;-87
2021/12/08 11:04:04;;;;;;;6.43;1.50;;;;;;;5.40;80.79;99501.44;5091804;28;20486;-89
2021/12/08 11:06:35;;;;;;;6.55;2.28;;;;;;;5.45;81.26;99514.97;5088795;28;20028;-89
2021/12/08 11:09:02;;;;;;;9.93;2.20;;;;;;;5.48;81.15;99513.91;5093792;28;20390;-89
2021/12/08 11:11:32;;;;;;;6.45;1.67;;;;;;;5.48;80.37;99516.50;5094647;28;20031;-89
2021/12/08 11:14:03;;;;;;;7.65;1.73;;;;;;;5.55;80.69;99521.16;5093774;28;20035;-88
2021/12/08 11:16:33;;;;;;;8.68;1.90;;;;;;;5.54;79.77;99509.03;5091166;28;20012;-90
2021/12/08 11:19:18;;;;;;;7.93;2.05;;;;;;;5.66;79.94;99528.19;5073492;28;20158;-89
2021/12/08 11:21:47;;;;;;;7.82;2.15;;;;;;;5.61;80.04;99525.09;5073626;28;20028;-90
2021/12/08 11:24:30;;;;;;;6.97;1.95;;;;;;;5.65;79.88;99529.16;5080139;28;20175;-89
2021/12/08 11:26:57;;;;;;;5.97;1.80;;;;;;;5.75;80.24;99534.50;5104413;28;20491;-87
2021/12/08 11:29:28;;;;;;;7.57;1.88;;;;;;;5.79;79.79;99528.09;5095997;28;20024;-79
2021/12/08 11:32:01;;;;;;;7.72;2.13;;;;;;;5.85;80.74;99532.84;5105360;28;20031;-87
2021/12/08 11:34:34;;;;;;;8.43;2.08;;;;;;;5.87;79.44;99541.41;5097054;28;20034;-89
2021/12/08 11:37:03;;;;;;;6.22;1.80;;;;;;;5.85;79.59;99538.06;5088633;28;20020;-90
2021/12/08 11:39:31;;;;;;;8.98;2.33;;;;;;;5.94;79.81;99547.84;5079580;28;20026;-90
2021/12/08 11:42:06;;;;;;;7.55;2.10;;;;;;;5.95;79.70;99559.94;5082675;28;20067;-89
2021/12/08 11:44:36;;;;;;;8.15;2.20;;;;;;;5.96;79.02;99572.06;5086682;28;20663;-89
2021/12/08 11:47:07;;;;;;;9.95;2.10;;;;;;;6.01;78.63;99564.72;5086296;28;20422;-89
2021/12/08 11:49:33;;;;;;;8.73;1.90;;;;;;;6.02;78.45;99574.22;5083687;28;20055;-90
2021/12/08 11:52:06;;;;;;;12.70;1.98;;;;;;;5.97;78.37;99568.50;5082079;28;20070;-89
2021/12/08 11:54:48;;;;;;;5.82;1.70;;;;;;;6.01;79.31;99584.78;5083483;28;20033;-90
2021/12/08 11:57:23;;;;;;;7.85;1.88;;;;;;;6.02;78.94;99587.28;5082412;28;20035;-80
2021/12/08 11:59:56;;;;;;;7.38;1.60;;;;;;;6.01;78.37;99590.84;5079865;28;20078;-89
2021/12/08 12:02:26;;;;;;;6.05;1.75;;;;;;;6.03;79.14;99586.34;5085636;28;20025;-89
2021/12/08 12:04:52;;;;;;;6.78;1.90;;;;;;;6.01;79.84;99580.41;5080116;28;20008;-90
2021/12/08 12:07:18;;;;;;;6.85;1.80;;;;;;;6.02;79.49;99587.28;5081539;28;20032;-90
2021/12/08 12:09:45;;;;;;;9.25;1.80;;;;;;;6.01;78.28;99590.84;5082025;28;20071;-90
2021/12/08 12:12:13;;;;;;;7.47;1.58;;;;;;;6.02;77.50;99602.94;5082072;28;20034;-81
2021/12/08 12:14:39;;;;;;;9.82;1.80;;;;;;;6.06;77.93;99614.00;5088427;28;20047;-90
2021/12/08 12:17:05;;;;;;;5.88;1.70;;;;;;;6.00;77.58;99620.47;5081421;28;20071;-91
2021/12/08 12:19:39;;;;;;;6.60;2.20;;;;;;;5.96;77.77;99634.72;5079679;28;20099;-90
2021/12/08 12:22:29;;;;;;;7.68;1.70;;;;;;;5.96;79.10;99619.03;5073404;28;20124;-90
2021/12/08 12:25:24;;;;;;;7.00;1.77;;;;;;;6.03;79.14;99645.56;5083700;28;20119;-90
2021/12/08 12:28:14;;;;;;;7.13;1.70;;;;;;;6.01;78.93;99642.22;5085569;28;20081;-89
2021/12/08 12:31:19;;;;;;;8.73;1.83;;;;;;;5.93;78.53;99632.31;5079121;28;20032;-90
2021/12/08 12:33:45;;;;;;;6.13;1.63;;;;;;;5.96;78.21;99658.19;5087156;28;20043;-90
2021/12/08 12:36:27;;;;;;;5.80;1.70;;;;;;;5.96;79.77;99650.38;5080978;28;20055;-90
2021/12/08 12:39:12;;;;;;;5.38;1.52;;;;;;;5.95;79.29;99653.94;5083961;28;20055;-90